ENAT Airport Information

Runway Information
Runway 11 Length 7165 ft width 131 ft
Elevation 8 ft Threshold 674 ft Heading 121
Runway 29 Length 7165 ft Width 131 ft
Elevation 7 ft Threshold 418 ft Heading 301
Airport Frequencies
Type ATIS Name ATIS Frequency 118.175 MHZ
Type TWR Name TWR Frequency 118.1 MHZ
Airport Navaids
Type NDB Name Alta Frequency 358 KHZ
Type VOR-DME Name Alta Frequency 117400 KHZ
Airport Weather Information & NOTAM
ADDS - METARS form results

(1436 UTC 16 April 2021)
Data provider http://aviationweather.gov/metar/data/
 
METAR text: ENAT 161420Z 26014KT 9999 FEW035 BKN055 07/01 Q1030 RMK WIND 700FT 24020KT
Conditions at: ENAT (ALTA AIRPORT , NO) observed 1420 UTC 16 April 2021
Temperature: 7.0°C (45°F)
Dewpoint: 1.0°C (34°F) [RH = 66%]
Pressure (altimeter): 30.41 inches Hg (1030.0 mb)
Winds: from the W (260 degrees) at 16 MPH (14 knots; 7.2 m/s)
Visibility: 6 or more miles (10+ km)
Ceiling: 5500 feet AGL
Clouds: few clouds at 3500 feet AGL
broken clouds at 5500 feet AGL
Weather: no significant weather observed at this time

METAR text: ENAT 161350Z 28013KT 9999 FEW040 SCT086 BKN140 07/01 Q1030 RMK WIND 700FT 26023KT
Conditions at: ENAT (ALTA AIRPORT , NO) observed 1350 UTC 16 April 2021
Temperature: 7.0°C (45°F)
Dewpoint: 1.0°C (34°F) [RH = 66%]
Pressure (altimeter): 30.41 inches Hg (1030.0 mb)
Winds: from the W (280 degrees) at 15 MPH (13 knots; 6.7 m/s)
Visibility: 6 or more miles (10+ km)
Ceiling: 14000 feet AGL
Clouds: few clouds at 4000 feet AGL
scattered clouds at 8600 feet AGL
broken clouds at 14000 feet AGL
Weather: no significant weather observed at this time

Forecast for: ENAT (ALTA AIRPORT , NO)
Text: TAF ENAT 161400Z 1615/1621 27009KT 9999 BKN040
Forecast period: 1500 to 2100 UTC 16 April 2021
Forecast type: FROM: standard forecast or significant change
Winds: from the W (270 degrees) at 10 MPH (9 knots; 4.6 m/s)
Visibility: 6 or more miles (10+ km)
Ceiling: 4000 feet AGL
Clouds: broken clouds at 4000 feet AGL
Weather: no significant weather forecast for this period
Text: PROB30
Forecast period: 1500 to 2100 UTC 16 April 2021
Forecast type: TEMPORARY: The following changes expected for less than half the time period
Visibility: 2.49 miles (4.01 km)
Ceiling: 1200 feet AGL
Clouds: broken clouds at 1200 feet AGL
Weather: RA  (moderate rain)